createdAt,value
2017-02-06T00:00:07.688Z,66.15
2017-02-06T00:01:08.272Z,66.33
2017-02-06T00:02:07.838Z,65.61
2017-02-06T00:03:08.396Z,65.05
2017-02-06T00:04:08.028Z,65.87
2017-02-06T00:05:07.564Z,66.14
2017-02-06T00:06:08.437Z,65.56
2017-02-06T00:07:07.980Z,65.69
2017-02-06T00:08:07.449Z,65.92
2017-02-06T00:09:08.081Z,66.83
2017-02-06T00:10:07.661Z,66.78
2017-02-06T00:11:08.256Z,66.38
2017-02-06T00:12:07.863Z,66.59
2017-02-06T00:13:08.399Z,66.06
2017-02-06T00:14:07.976Z,65.94
2017-02-06T00:15:07.498Z,66.23
2017-02-06T00:16:08.123Z,66.81
2017-02-06T00:17:07.983Z,66.40
2017-02-06T00:18:17.435Z,66.94
2017-02-06T00:19:07.993Z,66.08
2017-02-06T00:20:07.649Z,66.61
2017-02-06T00:21:08.458Z,66.28
2017-02-06T00:22:08.120Z,66.26
2017-02-06T00:23:07.583Z,66.00
2017-02-06T00:24:08.062Z,66.64
2017-02-06T00:25:07.536Z,66.72
2017-02-06T00:26:08.011Z,65.80
2017-02-06T00:27:07.510Z,65.43
2017-02-06T00:28:08.022Z,65.39
2017-02-06T00:29:07.503Z,65.48
2017-02-06T00:30:08.068Z,65.57
2017-02-06T00:31:07.928Z,65.88
2017-02-06T00:32:08.481Z,65.80
2017-02-06T00:33:08.049Z,65.50
2017-02-06T00:34:07.770Z,65.39
2017-02-06T00:35:08.410Z,65.78
2017-02-06T00:36:07.998Z,66.58
2017-02-06T00:37:07.575Z,66.31
2017-02-06T00:38:08.157Z,66.21
2017-02-06T00:39:07.668Z,66.56
2017-02-06T00:40:08.240Z,65.97
2017-02-06T00:41:07.960Z,66.16
2017-02-06T00:42:07.476Z,66.56
2017-02-06T00:43:08.029Z,66.40
2017-02-06T00:44:07.524Z,66.65
2017-02-06T00:45:08.011Z,66.65
2017-02-06T00:46:07.498Z,66.07
2017-02-06T00:47:08.352Z,66.29
2017-02-06T00:48:08.144Z,66.80
2017-02-06T00:49:07.659Z,67.74
2017-02-06T00:50:08.259Z,66.69
2017-02-06T00:51:08.090Z,66.51
2017-02-06T00:52:07.543Z,66.35
2017-02-06T00:53:08.122Z,67.29
2017-02-06T00:54:07.972Z,67.55
2017-02-06T00:55:07.782Z,67.54
2017-02-06T00:56:08.376Z,66.84
2017-02-06T00:57:07.913Z,67.36
2017-02-06T00:58:08.438Z,67.43
2017-02-06T00:59:08.141Z,66.69
2017-02-06T01:00:07.632Z,65.95
2017-02-06T01:01:08.213Z,65.94
2017-02-06T01:02:07.923Z,67.09
2017-02-06T01:03:08.496Z,68.08
2017-02-06T01:04:08.053Z,67.49
2017-02-06T01:05:07.530Z,67.45
2017-02-06T01:06:08.086Z,67.40
2017-02-06T01:07:07.664Z,66.82
2017-02-06T01:08:08.301Z,66.66
2017-02-06T01:09:07.813Z,66.82
2017-02-06T01:10:08.383Z,66.63
2017-02-06T01:11:07.871Z,66.96
2017-02-06T01:12:08.519Z,66.57
2017-02-06T01:13:08.357Z,66.68
2017-02-06T01:14:07.888Z,67.26
2017-02-06T01:15:08.421Z,67.62
2017-02-06T01:16:08.183Z,67.79
2017-02-06T01:17:07.963Z,67.88
2017-02-06T01:18:07.446Z,68.00
2017-02-06T01:19:07.988Z,67.98
2017-02-06T01:20:07.528Z,68.15
2017-02-06T01:21:08.103Z,67.59
2017-02-06T01:22:07.728Z,67.37
2017-02-06T01:23:08.517Z,67.59
2017-02-06T01:24:08.010Z,67.50
2017-02-06T01:25:07.656Z,67.23
2017-02-06T01:26:08.195Z,67.34
2017-02-06T01:27:07.772Z,67.36
2017-02-06T01:28:08.298Z,67.97
2017-02-06T01:29:07.835Z,68.41
2017-02-06T01:30:08.400Z,69.23
2017-02-06T01:31:08.059Z,68.40
2017-02-06T01:32:07.722Z,67.70
2017-02-06T01:33:08.291Z,67.75
2017-02-06T01:34:07.960Z,68.21
2017-02-06T01:35:07.463Z,67.42
2017-02-06T01:36:08.020Z,67.24
2017-02-06T01:37:07.558Z,67.62
2017-02-06T01:38:08.197Z,68.25
2017-02-06T01:39:07.832Z,68.80
2017-02-06T01:40:08.575Z,67.99
2017-02-06T01:41:08.163Z,67.58
2017-02-06T01:42:07.677Z,67.46
2017-02-06T01:43:08.226Z,68.18
2017-02-06T01:44:07.916Z,67.59
2017-02-06T01:45:08.414Z,67.37
2017-02-06T01:46:07.898Z,67.43
2017-02-06T01:47:08.715Z,67.29
2017-02-06T01:48:08.224Z,66.93
2017-02-06T01:49:07.774Z,67.33
2017-02-06T01:50:08.278Z,67.75
2017-02-06T01:51:08.176Z,67.25
2017-02-06T01:52:07.746Z,67.97
2017-02-06T01:53:08.367Z,68.05
2017-02-06T01:54:08.147Z,68.13
2017-02-06T01:55:07.660Z,68.19
2017-02-06T01:56:08.177Z,67.70
2017-02-06T01:57:07.897Z,67.42
2017-02-06T01:58:08.410Z,66.72
2017-02-06T01:59:07.945Z,67.67
2017-02-06T02:00:07.477Z,67.92
2017-02-06T02:01:08.021Z,68.01
2017-02-06T02:02:07.818Z,68.03
2017-02-06T02:03:08.336Z,67.86
2017-02-06T02:04:08.230Z,67.61
2017-02-06T02:05:07.744Z,68.17
2017-02-06T02:06:08.301Z,67.59
2017-02-06T02:07:07.885Z,67.95
2017-02-06T02:08:08.374Z,68.40
2017-02-06T02:09:07.897Z,68.25
2017-02-06T02:10:08.388Z,67.94
2017-02-06T02:11:07.965Z,68.02
2017-02-06T02:12:07.486Z,68.01
2017-02-06T02:13:08.258Z,67.86
2017-02-06T02:14:07.811Z,68.25
2017-02-06T02:15:08.325Z,68.41
2017-02-06T02:16:07.830Z,67.82
2017-02-06T02:17:08.441Z,67.42
2017-02-06T02:18:07.523Z,67.80
2017-02-06T02:19:08.462Z,68.07
2017-02-06T02:20:07.969Z,69.35
2017-02-06T02:21:07.460Z,69.17
2017-02-06T02:22:07.930Z,69.19
2017-02-06T02:23:07.467Z,70.15
2017-02-06T02:24:07.959Z,69.32
2017-02-06T02:25:07.488Z,68.57
2017-02-06T02:26:08.062Z,68.07
2017-02-06T02:27:07.831Z,68.03
2017-02-06T02:28:08.425Z,68.00
2017-02-06T02:29:07.918Z,67.99
2017-02-06T02:30:08.537Z,67.76
2017-02-06T02:31:08.037Z,68.78
2017-02-06T02:32:07.496Z,68.99
2017-02-06T02:33:08.014Z,69.10
2017-02-06T02:34:07.529Z,68.87
2017-02-06T02:35:08.045Z,69.14
2017-02-06T02:36:07.764Z,69.21
2017-02-06T02:37:08.541Z,68.77
2017-02-06T02:38:08.106Z,68.91
2017-02-06T02:39:07.754Z,68.20
2017-02-06T02:40:08.282Z,69.16
2017-02-06T02:41:07.955Z,68.91
2017-02-06T02:42:07.519Z,69.21
2017-02-06T02:43:08.078Z,68.87
2017-02-06T02:44:07.559Z,68.68
2017-02-06T02:45:08.199Z,68.47
2017-02-06T02:46:07.747Z,67.97
2017-02-06T02:47:08.384Z,68.93
2017-02-06T02:48:08.826Z,68.61
2017-02-06T02:49:08.590Z,68.40
2017-02-06T02:50:08.134Z,68.77
2017-02-06T02:51:07.676Z,68.57
2017-02-06T02:52:08.269Z,68.80
2017-02-06T02:53:07.754Z,67.86
2017-02-06T02:54:08.333Z,68.59
2017-02-06T02:55:07.844Z,69.44
2017-02-06T02:56:08.516Z,69.67
2017-02-06T02:57:08.182Z,68.83
2017-02-06T02:58:07.628Z,68.59
2017-02-06T02:59:08.207Z,68.65
2017-02-06T03:00:07.727Z,69.05
2017-02-06T03:01:08.476Z,68.38
2017-02-06T03:02:08.025Z,68.65
2017-02-06T03:03:07.503Z,68.72
2017-02-06T03:04:08.186Z,68.95
2017-02-06T03:05:07.802Z,69.16
2017-02-06T03:06:08.428Z,69.88
2017-02-06T03:07:07.869Z,69.51
2017-02-06T03:08:08.070Z,69.42
2017-02-06T03:09:07.539Z,69.15
2017-02-06T03:10:08.338Z,69.00
2017-02-06T03:11:07.863Z,69.32
2017-02-06T03:12:08.349Z,70.02
2017-02-06T03:13:07.907Z,69.06
2017-02-06T03:14:08.378Z,70.29
2017-02-06T03:15:07.893Z,70.45
2017-02-06T03:16:08.383Z,70.65
2017-02-06T03:17:08.190Z,70.56
2017-02-06T03:18:07.787Z,70.36
2017-02-06T03:19:08.317Z,70.27
2017-02-06T03:20:08.014Z,70.28
2017-02-06T03:21:07.558Z,70.04
2017-02-06T03:22:08.087Z,69.48
2017-02-06T03:23:07.745Z,69.39
2017-02-06T03:24:08.224Z,69.69
2017-02-06T03:25:07.780Z,69.35
2017-02-06T03:26:08.356Z,69.88
2017-02-06T03:27:07.918Z,69.88
2017-02-06T03:28:08.573Z,69.19
2017-02-06T03:29:08.466Z,69.64
2017-02-06T03:30:08.006Z,69.67
2017-02-06T03:31:07.590Z,69.67
2017-02-06T03:32:08.248Z,69.65
2017-02-06T03:33:07.717Z,69.44
2017-02-06T03:34:08.520Z,70.53
2017-02-06T03:35:08.041Z,69.94
2017-02-06T03:36:07.568Z,70.01
2017-02-06T03:37:08.106Z,70.89
2017-02-06T03:38:07.634Z,70.74
2017-02-06T03:39:08.181Z,70.87
2017-02-06T03:40:07.939Z,70.42
2017-02-06T03:41:07.594Z,70.69
2017-02-06T03:42:08.122Z,70.37
2017-02-06T03:43:08.079Z,70.50
2017-02-06T03:44:07.700Z,70.43
2017-02-06T03:45:08.210Z,70.46
2017-02-06T03:46:07.981Z,69.91
2017-02-06T03:47:07.655Z,70.41
2017-02-06T03:48:08.216Z,70.93
2017-02-06T03:49:07.725Z,71.31
2017-02-06T03:50:08.255Z,71.19
2017-02-06T03:51:07.776Z,70.96
2017-02-06T03:52:08.305Z,70.35
2017-02-06T03:53:07.908Z,70.96
2017-02-06T03:54:08.460Z,70.86
2017-02-06T03:55:08.048Z,71.92
2017-02-06T03:56:07.572Z,71.36
2017-02-06T03:57:08.267Z,70.99
2017-02-06T03:58:07.758Z,70.95
2017-02-06T03:59:08.315Z,70.84
2017-02-06T04:00:07.868Z,72.10
2017-02-06T04:01:08.435Z,71.98
2017-02-06T04:02:08.042Z,71.03
2017-02-06T04:03:07.661Z,71.00
2017-02-06T04:04:08.246Z,71.38
2017-02-06T04:05:07.727Z,70.91
2017-02-06T04:06:08.366Z,71.33
2017-02-06T04:07:08.376Z,70.39
2017-02-06T04:08:07.826Z,70.39
2017-02-06T04:09:08.311Z,70.84
2017-02-06T04:10:08.140Z,71.48
2017-02-06T04:11:07.639Z,71.30
2017-02-06T04:12:08.208Z,71.71
2017-02-06T04:13:07.843Z,71.35
2017-02-06T04:14:08.587Z,71.76
2017-02-06T04:15:08.217Z,72.92
2017-02-06T04:16:07.774Z,72.95
2017-02-06T04:17:08.604Z,72.46
2017-02-06T04:18:08.357Z,71.77
2017-02-06T04:19:07.820Z,71.78
2017-02-06T04:20:08.420Z,71.77
2017-02-06T04:21:07.988Z,71.59
2017-02-06T04:22:07.435Z,70.60
2017-02-06T04:23:08.169Z,71.38
2017-02-06T04:24:07.959Z,71.26
2017-02-06T04:25:07.449Z,71.44
2017-02-06T04:26:08.043Z,71.73
2017-02-06T04:27:07.580Z,71.56
2017-02-06T04:28:08.110Z,71.45
2017-02-06T04:29:07.558Z,71.81
2017-02-06T04:30:08.115Z,71.35
2017-02-06T04:31:07.608Z,71.12
2017-02-06T04:32:08.183Z,72.32
2017-02-06T04:33:07.733Z,72.02
2017-02-06T04:34:08.505Z,71.61
2017-02-06T04:35:08.056Z,72.14
2017-02-06T04:36:07.629Z,71.99
2017-02-06T04:37:08.264Z,71.54
2017-02-06T04:38:07.799Z,71.42
2017-02-06T04:39:08.348Z,71.92
2017-02-06T04:40:07.845Z,71.86
2017-02-06T04:41:08.517Z,71.97
2017-02-06T04:42:07.975Z,72.45
2017-02-06T04:43:07.517Z,72.72
2017-02-06T04:44:07.999Z,72.76
2017-02-06T04:45:07.496Z,71.76
2017-02-06T04:46:08.083Z,72.38
2017-02-06T04:47:07.714Z,71.90
2017-02-06T04:48:08.262Z,71.91
2017-02-06T04:49:07.847Z,72.42
2017-02-06T04:50:08.322Z,71.89
2017-02-06T04:51:07.853Z,73.21
2017-02-06T04:52:08.429Z,72.94
2017-02-06T04:53:08.102Z,72.53
2017-02-06T04:54:07.685Z,72.59
2017-02-06T04:55:08.238Z,72.47
2017-02-06T04:56:07.793Z,72.62
2017-02-06T04:57:08.351Z,72.29
2017-02-06T04:58:07.997Z,71.99
2017-02-06T04:59:07.485Z,72.41
2017-02-06T05:00:08.277Z,72.37
2017-02-06T05:01:07.765Z,72.80
2017-02-06T05:02:08.408Z,72.78
2017-02-06T05:03:07.953Z,72.88
2017-02-06T05:04:07.539Z,72.96
2017-02-06T05:05:08.115Z,73.26
2017-02-06T05:06:07.700Z,73.76
2017-02-06T05:07:08.418Z,72.87
2017-02-06T05:08:07.972Z,73.29
2017-02-06T05:09:07.517Z,73.05
2017-02-06T05:10:08.269Z,72.59
2017-02-06T05:11:08.050Z,72.93
2017-02-06T05:12:07.510Z,72.56
2017-02-06T05:13:08.227Z,72.45
2017-02-06T05:14:07.774Z,72.50
2017-02-06T05:15:08.623Z,72.80
2017-02-06T05:16:08.331Z,73.20
2017-02-06T05:17:08.120Z,73.21
2017-02-06T05:18:07.656Z,73.05
2017-02-06T05:19:08.197Z,72.56
2017-02-06T05:20:07.937Z,72.06
2017-02-06T05:21:07.545Z,71.92
2017-02-06T05:22:08.044Z,72.37
2017-02-06T05:23:07.605Z,72.50
2017-02-06T05:24:08.064Z,72.35
2017-02-06T05:25:10.557Z,71.73
2017-02-06T05:26:07.512Z,72.46
2017-02-06T05:27:07.976Z,72.69
2017-02-06T05:28:07.515Z,73.15
2017-02-06T05:29:07.984Z,72.64
2017-02-06T05:30:07.752Z,72.86
2017-02-06T05:31:08.495Z,72.64
2017-02-06T05:32:07.988Z,73.57
2017-02-06T05:33:07.530Z,73.59
2017-02-06T05:34:08.209Z,73.11
2017-02-06T05:35:07.702Z,73.13
2017-02-06T05:36:08.266Z,72.65
2017-02-06T05:37:08.010Z,73.04
2017-02-06T05:38:07.671Z,72.99
2017-02-06T05:39:08.251Z,73.05
2017-02-06T05:40:07.842Z,73.11
2017-02-06T05:41:08.379Z,73.46
2017-02-06T05:42:07.848Z,73.89
2017-02-06T05:43:08.442Z,73.80
2017-02-06T05:44:07.987Z,73.70
2017-02-06T05:45:07.475Z,72.89
2017-02-06T05:46:08.070Z,73.16
2017-02-06T05:47:07.730Z,73.30
2017-02-06T05:48:08.868Z,73.81
2017-02-06T05:49:08.608Z,73.18
2017-02-06T05:50:08.302Z,73.35
2017-02-06T05:51:07.887Z,74.05
2017-02-06T05:52:08.458Z,73.56
2017-02-06T05:53:08.056Z,73.66
2017-02-06T05:54:07.817Z,73.60
2017-02-06T05:55:08.382Z,73.74
2017-02-06T05:56:07.892Z,73.61
2017-02-06T05:57:08.382Z,73.50
2017-02-06T05:58:07.896Z,73.22
2017-02-06T05:59:08.496Z,73.22
2017-02-06T06:00:08.147Z,73.38
2017-02-06T06:01:07.681Z,73.72
2017-02-06T06:02:08.211Z,73.58
2017-02-06T06:03:08.437Z,73.57
2017-02-06T06:04:07.995Z,73.68
2017-02-06T06:05:07.569Z,74.50
2017-02-06T06:06:08.257Z,74.46
2017-02-06T06:07:07.775Z,74.00
2017-02-06T06:08:08.257Z,74.25
2017-02-06T06:09:07.839Z,75.59
2017-02-06T06:10:08.431Z,75.49
2017-02-06T06:11:08.040Z,74.58
2017-02-06T06:12:07.664Z,74.22
2017-02-06T06:13:08.182Z,74.46
2017-02-06T06:14:07.695Z,75.04
2017-02-06T06:15:08.240Z,74.62
2017-02-06T06:16:08.036Z,74.02
2017-02-06T06:17:07.799Z,73.92
2017-02-06T06:18:08.390Z,74.00
2017-02-06T06:19:07.968Z,73.65
2017-02-06T06:20:07.584Z,74.00
2017-02-06T06:21:08.282Z,73.95
2017-02-06T06:22:07.823Z,73.43
2017-02-06T06:23:08.410Z,73.65
2017-02-06T06:24:07.954Z,74.55
2017-02-06T06:25:07.484Z,74.63
2017-02-06T06:26:08.117Z,74.88
2017-02-06T06:27:07.666Z,74.19
2017-02-06T06:28:08.188Z,74.03
2017-02-06T06:29:08.096Z,74.90
2017-02-06T06:30:07.872Z,74.25
2017-02-06T06:31:08.551Z,74.00
2017-02-06T06:32:08.142Z,74.10
2017-02-06T06:33:07.780Z,74.52
2017-02-06T06:34:08.433Z,75.04
2017-02-06T06:35:08.034Z,74.74
2017-02-06T06:36:07.558Z,74.12
2017-02-06T06:37:08.327Z,73.83
2017-02-06T06:38:07.839Z,74.38
2017-02-06T06:39:08.463Z,74.71
2017-02-06T06:40:08.101Z,74.91
2017-02-06T06:41:07.859Z,74.99
2017-02-06T06:42:08.541Z,74.62
2017-02-06T06:43:08.181Z,74.35
2017-02-06T06:44:07.676Z,74.82
2017-02-06T06:45:08.353Z,74.57
2017-02-06T06:46:07.818Z,74.76
2017-02-06T06:47:08.488Z,74.40
2017-02-06T06:48:08.005Z,74.37
2017-02-06T06:49:07.500Z,74.15
2017-02-06T06:50:08.374Z,74.09
2017-02-06T06:51:08.878Z,73.96
2017-02-06T06:52:08.416Z,74.21
2017-02-06T06:53:08.253Z,74.26
2017-02-06T06:54:07.727Z,73.83
2017-02-06T06:55:09.248Z,74.21
2017-02-06T06:56:08.160Z,74.63
2017-02-06T06:57:07.670Z,74.39
2017-02-06T06:58:08.209Z,74.66
2017-02-06T06:59:07.778Z,74.16
2017-02-06T07:00:08.416Z,73.89
2017-02-06T07:01:07.965Z,74.00
2017-02-06T07:02:07.554Z,74.16
2017-02-06T07:03:08.156Z,74.02
2017-02-06T07:04:07.635Z,73.09
2017-02-06T07:05:08.231Z,72.95
2017-02-06T07:06:07.760Z,73.53
2017-02-06T07:07:08.362Z,73.34
2017-02-06T07:08:08.116Z,72.99
2017-02-06T07:09:07.652Z,73.64
2017-02-06T07:10:08.176Z,74.15
2017-02-06T07:11:07.917Z,73.35
2017-02-06T07:12:08.477Z,73.35
2017-02-06T07:13:08.003Z,73.92
2017-02-06T07:14:07.675Z,74.22
2017-02-06T07:15:08.164Z,74.17
2017-02-06T07:16:07.677Z,73.95
2017-02-06T07:17:08.312Z,73.77
2017-02-06T07:18:07.956Z,73.62
2017-02-06T07:19:07.711Z,73.60
2017-02-06T07:20:08.231Z,74.08
2017-02-06T07:21:07.804Z,74.13
2017-02-06T07:22:08.492Z,74.06
2017-02-06T07:23:08.163Z,75.05
2017-02-06T07:24:27.211Z,74.72
2017-02-06T07:25:07.753Z,74.87
2017-02-06T07:26:08.356Z,75.39
2017-02-06T07:27:07.979Z,74.73
2017-02-06T07:28:26.675Z,74.63
2017-02-06T07:29:08.178Z,73.81
2017-02-06T07:30:07.844Z,74.15
2017-02-06T07:31:08.289Z,73.79
2017-02-06T07:32:07.910Z,73.60
2017-02-06T07:33:08.527Z,73.78
2017-02-06T07:34:08.139Z,73.52
2017-02-06T07:35:07.701Z,73.55
2017-02-06T07:36:08.236Z,73.29
2017-02-06T07:37:07.982Z,73.81
2017-02-06T07:38:07.565Z,74.28
2017-02-06T07:39:08.298Z,73.90
2017-02-06T07:40:08.045Z,74.12
2017-02-06T07:41:07.544Z,74.73
2017-02-06T07:42:08.087Z,74.69
2017-02-06T07:43:07.564Z,74.86
2017-02-06T07:44:08.147Z,74.80
2017-02-06T07:45:07.679Z,74.95
2017-02-06T07:46:07.969Z,75.72
2017-02-06T07:47:07.499Z,75.23
2017-02-06T07:48:08.024Z,75.40
2017-02-06T07:49:07.552Z,74.97
2017-02-06T07:50:08.032Z,74.52
2017-02-06T07:51:07.616Z,73.88
2017-02-06T07:52:08.205Z,75.15
2017-02-06T07:53:08.271Z,75.65
2017-02-06T07:54:07.828Z,75.05
2017-02-06T07:55:08.373Z,74.90
2017-02-06T07:56:08.035Z,75.07
2017-02-06T07:57:07.545Z,74.87
2017-02-06T07:58:08.153Z,75.26
2017-02-06T07:59:08.493Z,74.23
2017-02-06T08:00:08.183Z,74.09
2017-02-06T08:01:07.709Z,74.31
2017-02-06T08:02:08.201Z,74.37
2017-02-06T08:03:07.716Z,74.85
2017-02-06T08:04:08.262Z,73.68
2017-02-06T08:05:07.826Z,74.02
2017-02-06T08:06:08.377Z,74.57
2017-02-06T08:07:07.949Z,74.51
2017-02-06T08:08:07.513Z,73.94
2017-02-06T08:09:08.205Z,74.79
2017-02-06T08:10:07.660Z,73.96
2017-02-06T08:11:08.259Z,73.91
2017-02-06T08:12:07.745Z,74.25
2017-02-06T08:13:08.302Z,74.06
2017-02-06T08:14:07.792Z,74.37
2017-02-06T08:15:08.338Z,73.67
2017-02-06T08:16:07.820Z,73.85
2017-02-06T08:17:08.599Z,73.60
2017-02-06T08:18:08.145Z,74.25
2017-02-06T08:19:07.683Z,73.64
2017-02-06T08:20:08.309Z,73.41
2017-02-06T08:21:07.869Z,73.49
2017-02-06T08:22:08.422Z,73.46
2017-02-06T08:23:08.189Z,72.71
2017-02-06T08:24:07.747Z,73.19
2017-02-06T08:25:08.446Z,72.53
2017-02-06T08:26:07.975Z,72.99
2017-02-06T08:27:07.561Z,73.23
2017-02-06T08:28:08.065Z,73.58
2017-02-06T08:29:07.577Z,72.79
2017-02-06T08:30:08.130Z,73.12
2017-02-06T08:31:07.603Z,72.89
2017-02-06T08:32:08.108Z,73.32
2017-02-06T08:33:07.953Z,73.70
2017-02-06T08:34:07.491Z,73.47
2017-02-06T08:35:08.101Z,72.79
2017-02-06T08:36:07.609Z,72.84
2017-02-06T08:37:08.181Z,73.34
2017-02-06T08:38:07.774Z,73.26
2017-02-06T08:39:08.406Z,73.61
2017-02-06T08:40:07.933Z,73.78
2017-02-06T08:41:08.834Z,73.37
2017-02-06T08:42:08.830Z,73.46
2017-02-06T08:43:08.378Z,73.23
2017-02-06T08:44:08.257Z,73.38
2017-02-06T08:45:07.766Z,73.19
2017-02-06T08:46:08.562Z,72.86
2017-02-06T08:47:08.083Z,74.21
2017-02-06T08:48:07.698Z,73.63
2017-02-06T08:49:08.413Z,72.93
2017-02-06T08:50:07.910Z,72.57
2017-02-06T08:51:08.563Z,73.37
2017-02-06T08:52:08.263Z,73.34
2017-02-06T08:53:07.944Z,72.43
2017-02-06T08:54:07.454Z,73.56
2017-02-06T08:55:07.942Z,73.21
2017-02-06T08:56:07.744Z,73.14
2017-02-06T08:57:08.304Z,73.62
2017-02-06T08:58:07.888Z,73.76
2017-02-06T08:59:08.581Z,73.44
2017-02-06T09:00:08.177Z,74.03
2017-02-06T09:01:08.035Z,73.75
2017-02-06T09:02:07.814Z,73.70
2017-02-06T09:03:08.501Z,73.94
2017-02-06T09:04:08.336Z,73.57
2017-02-06T09:05:07.930Z,73.07
2017-02-06T09:06:08.421Z,73.07
2017-02-06T09:07:07.972Z,72.79
2017-02-06T09:08:07.551Z,72.99
2017-02-06T09:09:08.167Z,73.18
2017-02-06T09:10:07.655Z,73.71
2017-02-06T09:11:08.174Z,73.65
2017-02-06T09:12:07.891Z,73.86
2017-02-06T09:13:08.626Z,73.61
2017-02-06T09:14:08.306Z,74.05
2017-02-06T09:15:08.239Z,73.86
2017-02-06T09:16:07.881Z,73.78
2017-02-06T09:17:08.566Z,73.52
2017-02-06T09:18:08.128Z,73.41
2017-02-06T09:19:07.647Z,73.86
2017-02-06T09:20:09.106Z,73.32
2017-02-06T09:21:40.814Z,73.83
2017-02-06T09:22:08.519Z,74.05
2017-02-06T09:23:08.357Z,74.27
2017-02-06T09:24:07.855Z,73.74
2017-02-06T09:25:08.370Z,73.46
2017-02-06T09:26:07.835Z,73.58
2017-02-06T09:27:08.403Z,73.71
2017-02-06T09:28:07.455Z,73.90
2017-02-06T09:29:07.956Z,73.16
2017-02-06T09:30:07.531Z,73.42
2017-02-06T09:31:07.969Z,73.35
2017-02-06T09:32:07.435Z,73.84
2017-02-06T09:33:08.065Z,74.05
2017-02-06T09:34:07.553Z,74.05
2017-02-06T09:35:08.132Z,74.06
2017-02-06T09:36:07.604Z,73.28
2017-02-06T09:37:08.144Z,73.70
2017-02-06T09:38:07.894Z,74.38
2017-02-06T09:39:08.685Z,74.46
2017-02-06T09:40:08.658Z,74.51
2017-02-06T09:41:08.391Z,74.48
2017-02-06T09:42:08.218Z,74.42
2017-02-06T09:43:08.048Z,74.38
2017-02-06T09:44:27.511Z,74.70
2017-02-06T09:45:08.398Z,75.26
2017-02-06T09:46:08.101Z,75.42
2017-02-06T09:47:07.570Z,75.20
2017-02-06T09:48:08.251Z,75.00
2017-02-06T09:49:07.768Z,74.76
2017-02-06T09:50:08.276Z,75.30
2017-02-06T09:51:08.004Z,74.26
2017-02-06T09:52:07.510Z,74.95
2017-02-06T09:53:08.271Z,74.85
2017-02-06T09:54:07.905Z,74.53
2017-02-06T09:55:09.457Z,74.02
2017-02-06T09:56:07.915Z,74.38
2017-02-06T09:57:08.459Z,74.23
2017-02-06T09:58:07.993Z,74.21
2017-02-06T09:59:07.404Z,73.91
2017-02-06T10:00:08.144Z,74.26
2017-02-06T10:01:07.665Z,74.19
2017-02-06T10:02:08.119Z,74.79
2017-02-06T10:03:07.646Z,74.67
2017-02-06T10:04:08.154Z,74.98
2017-02-06T10:05:07.676Z,74.90
2017-02-06T10:06:08.141Z,75.24
2017-02-06T10:07:07.767Z,74.24
2017-02-06T10:08:08.271Z,73.91
2017-02-06T10:09:07.803Z,73.20
2017-02-06T10:10:08.341Z,73.36
2017-02-06T10:11:26.603Z,73.03
2017-02-06T10:12:08.320Z,73.63
2017-02-06T10:13:08.272Z,73.94
2017-02-06T10:14:07.754Z,73.82
2017-02-06T10:15:08.418Z,73.82
2017-02-06T10:16:08.091Z,74.43
2017-02-06T10:17:07.795Z,75.51
2017-02-06T10:18:08.331Z,75.53
2017-02-06T10:19:07.884Z,74.62
2017-02-06T10:20:08.423Z,74.70
2017-02-06T10:21:07.890Z,73.87
2017-02-06T10:22:08.438Z,73.49
2017-02-06T10:23:08.134Z,74.05
2017-02-06T10:24:07.640Z,73.72
2017-02-06T10:25:08.308Z,73.52
2017-02-06T10:26:08.083Z,74.35
2017-02-06T10:27:07.672Z,74.75
2017-02-06T10:28:08.238Z,74.48
2017-02-06T10:29:07.767Z,74.09
2017-02-06T10:30:08.623Z,74.82
2017-02-06T10:31:08.060Z,73.89
2017-02-06T10:32:07.552Z,74.08
2017-02-06T10:33:08.139Z,73.90
2017-02-06T10:34:07.672Z,73.88
2017-02-06T10:35:08.128Z,73.08
2017-02-06T10:36:07.654Z,73.53
2017-02-06T10:37:08.123Z,73.56
2017-02-06T10:38:07.622Z,73.35
2017-02-06T10:39:26.865Z,73.73
2017-02-06T10:40:08.457Z,73.86
2017-02-06T10:41:07.927Z,73.49
2017-02-06T10:42:08.677Z,73.33
2017-02-06T10:43:08.246Z,73.16
2017-02-06T10:44:07.529Z,72.76
2017-02-06T10:45:08.548Z,73.05
2017-02-06T10:46:08.050Z,73.26
2017-02-06T10:47:07.590Z,73.72
2017-02-06T10:48:08.115Z,73.23
2017-02-06T10:49:07.593Z,73.45
2017-02-06T10:50:08.120Z,73.42
2017-02-06T10:51:07.723Z,72.98
2017-02-06T10:52:15.747Z,73.07
2017-02-06T10:53:08.411Z,73.44
2017-02-06T10:54:08.037Z,73.12
2017-02-06T10:55:07.751Z,74.32
2017-02-06T10:56:08.500Z,74.51
2017-02-06T10:57:08.905Z,74.00
2017-02-06T10:58:08.541Z,73.41
2017-02-06T10:59:08.059Z,73.21
2017-02-06T11:00:07.543Z,73.05
2017-02-06T11:01:08.464Z,72.99
2017-02-06T11:02:08.169Z,72.89
2017-02-06T11:03:07.858Z,73.00
2017-02-06T11:04:08.391Z,73.45
2017-02-06T11:05:08.129Z,73.75
2017-02-06T11:06:07.701Z,74.54
2017-02-06T11:07:08.271Z,74.28
2017-02-06T11:08:07.856Z,73.83
2017-02-06T11:09:08.382Z,74.00
2017-02-06T11:10:07.924Z,74.19
2017-02-06T11:11:08.451Z,74.08
2017-02-06T11:12:08.222Z,73.94
2017-02-06T11:13:07.767Z,73.61
2017-02-06T11:14:08.277Z,73.65
2017-02-06T11:15:07.786Z,73.53
2017-02-06T11:16:08.594Z,73.54
2017-02-06T11:17:08.236Z,74.40
2017-02-06T11:18:07.757Z,73.47
2017-02-06T11:19:08.452Z,73.44
2017-02-06T11:20:08.075Z,72.98
2017-02-06T11:21:07.714Z,72.53
2017-02-06T11:22:08.236Z,71.84
2017-02-06T11:23:08.063Z,71.95
2017-02-06T11:24:07.568Z,72.44
2017-02-06T11:25:08.325Z,72.90
2017-02-06T11:26:07.845Z,72.83
2017-02-06T11:27:08.380Z,73.21
2017-02-06T11:28:07.984Z,73.14
2017-02-06T11:29:07.458Z,73.23
2017-02-06T11:30:08.023Z,73.15
2017-02-06T11:31:07.956Z,72.81
2017-02-06T11:32:07.468Z,73.08
2017-02-06T11:33:08.169Z,72.97
2017-02-06T11:34:07.807Z,73.10
2017-02-06T11:35:08.346Z,73.04
2017-02-06T11:36:07.906Z,73.48
2017-02-06T11:37:08.701Z,73.01
2017-02-06T11:38:08.285Z,72.64
2017-02-06T11:39:07.892Z,72.91
2017-02-06T11:40:08.576Z,73.96
2017-02-06T11:41:08.134Z,73.14
2017-02-06T11:42:07.653Z,72.99
2017-02-06T11:43:08.421Z,73.02
2017-02-06T11:44:07.982Z,72.83
2017-02-06T11:45:07.470Z,72.10
2017-02-06T11:46:08.424Z,72.31
2017-02-06T11:47:07.960Z,71.91
2017-02-06T11:48:07.527Z,71.81
2017-02-06T11:49:08.124Z,70.52
2017-02-06T11:50:07.710Z,70.35
2017-02-06T11:51:08.261Z,69.78
2017-02-06T11:52:07.841Z,70.30
2017-02-06T11:53:08.549Z,71.07
2017-02-06T11:54:08.043Z,71.42
2017-02-06T11:55:07.621Z,71.63
2017-02-06T11:56:08.191Z,72.32
2017-02-06T11:57:07.825Z,71.44
2017-02-06T11:58:09.275Z,71.37
2017-02-06T11:59:07.782Z,72.25
2017-02-06T12:00:07.863Z,71.38
2017-02-06T12:01:09.012Z,71.43
2017-02-06T12:02:07.627Z,71.81
2017-02-06T12:03:08.088Z,71.58
2017-02-06T12:04:07.581Z,71.89
2017-02-06T12:05:08.130Z,71.98
2017-02-06T12:06:07.765Z,71.79
2017-02-06T12:07:08.359Z,71.81
2017-02-06T12:08:07.938Z,71.75
2017-02-06T12:09:07.543Z,71.28
2017-02-06T12:10:08.321Z,71.24
2017-02-06T12:11:07.841Z,71.36
2017-02-06T12:12:08.445Z,71.34
2017-02-06T12:13:07.479Z,71.28
2017-02-06T12:14:08.130Z,72.09
2017-02-06T12:15:07.678Z,72.20
2017-02-06T12:16:08.482Z,71.73
2017-02-06T12:17:08.241Z,71.64
2017-02-06T12:18:07.882Z,71.12
2017-02-06T12:19:08.592Z,71.21
2017-02-06T12:20:08.263Z,70.28
2017-02-06T12:21:07.813Z,70.89
2017-02-06T12:22:08.594Z,71.71
2017-02-06T12:23:08.326Z,71.31
2017-02-06T12:24:07.877Z,71.35
2017-02-06T12:25:08.372Z,70.77
2017-02-06T12:26:07.989Z,70.50
2017-02-06T12:27:07.634Z,70.46
2017-02-06T12:28:08.213Z,70.47
2017-02-06T12:29:07.845Z,70.89
2017-02-06T12:30:08.379Z,70.47
2017-02-06T12:31:07.901Z,70.44
2017-02-06T12:32:08.495Z,69.92
2017-02-06T12:33:08.341Z,70.33
2017-02-06T12:34:07.912Z,70.14
2017-02-06T12:35:08.403Z,70.19
2017-02-06T12:36:07.975Z,70.60
2017-02-06T12:37:07.537Z,70.49
2017-02-06T12:38:08.088Z,70.28
2017-02-06T12:39:07.636Z,70.43
2017-02-06T12:40:08.208Z,70.17
2017-02-06T12:41:07.730Z,70.24
2017-02-06T12:42:08.468Z,70.06
2017-02-06T12:43:08.100Z,69.96
2017-02-06T12:44:07.654Z,70.11
2017-02-06T12:45:08.228Z,70.31
2017-02-06T12:46:07.844Z,70.66
2017-02-06T12:47:08.460Z,70.44
2017-02-06T12:48:08.043Z,70.99
2017-02-06T12:49:08.210Z,71.06
2017-02-06T12:50:07.733Z,70.65
2017-02-06T12:51:08.204Z,70.44
2017-02-06T12:52:07.770Z,71.06